Time;durP1;ratioP1;P1;durP2;ratioP2;P2;SDS_P1;SDS_P2;PMS_P1;PMS_P2;Temp;Humidity;BMP_temperature;BMP_pressure;BME280_temperature;BME280_humidity;BME280_pressure;Samples;Min_cycle;Max_cycle;Signal;HPM_P1;HPM_P2
2023/07/10 00:01:30;;;;;;;8.90;7.35;;;18.70;99.90;;;;;;5085520;28;20075;-74
2023/07/10 00:03:55;;;;;;;10.70;7.40;;;18.60;99.90;;;;;;5084576;28;20080;-75
2023/07/10 00:06:21;;;;;;;10.02;7.65;;;18.60;99.90;;;;;;5075141;28;20043;-72
2023/07/10 00:08:47;;;;;;;9.93;8.05;;;18.60;99.90;;;;;;5068055;28;20107;-73
2023/07/10 00:11:17;;;;;;;10.65;8.23;;;18.50;99.90;;;;;;5080563;28;20152;-72
2023/07/10 00:13:44;;;;;;;14.27;8.63;;;18.60;99.90;;;;;;5086856;28;20075;-74
2023/07/10 00:16:20;;;;;;;12.43;7.80;;;18.60;99.90;;;;;;5091939;28;20067;-73
2023/07/10 00:18:46;;;;;;;;;;;18.60;99.90;;;;;;5074765;28;20052;-73
2023/07/10 00:21:12;;;;;;;10.52;8.55;;;18.60;99.90;;;;;;5077811;28;19916;-72
2023/07/10 00:23:38;;;;;;;11.93;7.85;;;18.50;99.90;;;;;;5094705;28;20032;-73
2023/07/10 00:26:21;;;;;;;11.73;8.05;;;18.50;99.90;;;;;;5085648;28;20044;-74
2023/07/10 00:28:52;;;;;;;11.23;8.35;;;18.50;99.90;;;;;;5073162;28;20376;-74
2023/07/10 00:31:18;;;;;;;13.52;8.40;;;18.50;99.90;;;;;;5079367;28;20473;-72
2023/07/10 00:33:47;;;;;;;11.43;8.77;;;18.50;99.90;;;;;;5083102;28;20044;-73
2023/07/10 00:36:35;;;;;;;12.32;7.82;;;18.50;99.90;;;;;;5079813;28;20044;-73
2023/07/10 00:39:12;;;;;;;11.00;8.25;;;18.50;99.90;;;;;;5074584;28;20147;-75
2023/07/10 00:41:39;;;;;;;13.73;9.38;;;18.50;99.90;;;;;;5094611;28;20040;-74
2023/07/10 00:44:06;;;;;;;11.70;7.95;;;18.50;99.90;;;;;;5074822;28;20106;-75
2023/07/10 00:46:49;;;;;;;12.15;7.97;;;18.50;99.90;;;;;;5089499;28;20036;-75
2023/07/10 00:49:55;;;;;;;12.90;7.82;;;18.50;99.90;;;;;;5092800;28;20107;-75
2023/07/10 00:52:27;;;;;;;11.87;8.20;;;18.50;99.90;;;;;;5092835;28;20048;-75
2023/07/10 00:54:56;;;;;;;13.52;8.60;;;18.50;99.90;;;;;;5084689;28;20312;-75
2023/07/10 00:57:33;;;;;;;14.38;8.27;;;18.50;99.90;;;;;;5075248;28;20047;-74
2023/07/10 01:00:20;;;;;;;13.98;8.35;;;18.50;99.90;;;;;;5073653;28;20048;-74
2023/07/10 01:02:47;;;;;;;15.68;9.02;;;18.40;99.90;;;;;;5091852;28;20056;-73
2023/07/10 01:05:14;;;;;;;13.68;8.88;;;18.40;99.90;;;;;;5081980;28;20071;-75
2023/07/10 01:07:44;;;;;;;17.65;8.48;;;18.40;99.90;;;;;;5075216;28;20504;-75
2023/07/10 01:10:11;;;;;;;13.77;7.93;;;18.40;99.90;;;;;;5075340;28;20381;-75
2023/07/10 01:12:38;;;;;;;13.00;8.52;;;18.30;99.90;;;;;;5079045;28;20040;-75
2023/07/10 01:15:06;;;;;;;15.10;8.32;;;18.30;99.90;;;;;;5093910;28;20036;-76
2023/07/10 01:17:32;;;;;;;12.85;8.50;;;18.30;99.90;;;;;;5075452;28;20043;-75
2023/07/10 01:20:02;;;;;;;13.23;8.73;;;18.30;99.90;;;;;;5078691;28;20050;-75
2023/07/10 01:22:29;;;;;;;14.43;8.77;;;18.30;99.90;;;;;;5093241;28;20488;-75
2023/07/10 01:24:55;;;;;;;12.07;8.30;;;18.20;99.90;;;;;;5064072;28;20044;-76
2023/07/10 01:27:22;;;;;;;13.00;7.85;;;18.20;99.90;;;;;;5073338;28;20106;-75
2023/07/10 01:30:05;;;;;;;12.02;8.10;;;18.30;99.90;;;;;;5090942;28;20372;-76
2023/07/10 01:32:31;;;;;;;14.02;8.13;;;18.30;99.90;;;;;;5088042;28;20130;-76
2023/07/10 01:35:02;;;;;;;11.70;8.00;;;18.20;99.90;;;;;;5072625;28;20040;-76
2023/07/10 01:37:28;;;;;;;12.90;8.38;;;18.20;99.90;;;;;;5080630;28;20083;-75
2023/07/10 01:39:54;;;;;;;13.70;8.55;;;18.20;99.90;;;;;;5078615;28;20083;-76
2023/07/10 01:42:20;;;;;;;12.02;8.63;;;18.20;99.90;;;;;;5093333;28;20094;-77
2023/07/10 01:44:48;;;;;;;15.25;8.40;;;18.20;99.90;;;;;;5092199;28;20048;-79
2023/07/10 01:47:15;;;;;;;12.02;8.57;;;18.10;99.90;;;;;;5092203;28;20051;-76
2023/07/10 01:49:54;;;;;;;13.10;8.25;;;18.20;99.90;;;;;;5087980;28;20079;-77
2023/07/10 01:52:21;;;;;;;12.90;8.18;;;18.20;99.90;;;;;;5072660;28;20040;-76
2023/07/10 01:54:47;;;;;;;12.05;7.93;;;18.10;99.90;;;;;;5091510;28;20036;-78
2023/07/10 01:57:15;;;;;;;13.23;8.68;;;18.10;99.90;;;;;;5085582;28;20036;-79
2023/07/10 01:59:41;;;;;;;13.25;9.07;;;18.10;99.90;;;;;;5074153;28;20044;-79
2023/07/10 02:02:08;;;;;;;13.57;8.65;;;18.10;99.90;;;;;;5085971;28;20051;-78
2023/07/10 02:04:34;;;;;;;10.63;7.47;;;18.10;99.90;;;;;;5072804;28;20123;-78
2023/07/10 02:07:00;;;;;;;13.35;9.10;;;18.20;99.90;;;;;;5084317;28;20129;-78
2023/07/10 02:09:28;;;;;;;13.70;8.30;;;18.20;99.90;;;;;;5093107;28;20071;-78
2023/07/10 02:11:54;;;;;;;15.52;9.07;;;18.20;99.90;;;;;;5092344;28;20047;-79
2023/07/10 02:14:21;;;;;;;11.15;8.63;;;18.20;99.90;;;;;;5090285;28;20032;-78
2023/07/10 02:16:47;;;;;;;13.85;8.43;;;18.20;99.90;;;;;;5074298;28;20484;-79
2023/07/10 02:19:13;;;;;;;14.68;9.13;;;18.30;99.90;;;;;;5077138;28;20048;-74
2023/07/10 02:21:39;;;;;;;11.60;8.80;;;18.30;99.90;;;;;;5092424;28;20093;-79
2023/07/10 02:24:05;;;;;;;11.48;9.20;;;18.30;99.90;;;;;;5091749;28;20048;-79
2023/07/10 02:26:31;;;;;;;12.70;8.70;;;18.30;99.90;;;;;;5061129;28;20045;-77
2023/07/10 02:28:58;;;;;;;11.63;8.43;;;18.30;99.90;;;;;;5081911;28;20087;-77
2023/07/10 02:31:24;;;;;;;13.02;9.02;;;18.20;99.90;;;;;;5072690;28;20047;-77
2023/07/10 02:33:50;;;;;;;12.90;8.43;;;18.20;99.90;;;;;;5071434;28;20044;-78
2023/07/10 02:36:16;;;;;;;12.23;8.93;;;18.20;99.90;;;;;;5072574;28;20094;-77
2023/07/10 02:38:42;;;;;;;11.40;8.75;;;18.20;99.90;;;;;;5074041;28;20055;-78
2023/07/10 02:41:08;;;;;;;13.35;9.32;;;18.10;99.90;;;;;;5091622;28;20487;-78
2023/07/10 02:43:34;;;;;;;13.45;8.52;;;18.20;99.90;;;;;;5091475;28;20119;-78
2023/07/10 02:45:59;;;;;;;15.23;9.05;;;18.20;99.90;;;;;;5087238;28;20056;-77
2023/07/10 02:48:25;;;;;;;17.52;10.52;;;18.20;99.90;;;;;;5072133;28;20055;-78
2023/07/10 02:50:51;;;;;;;13.13;9.27;;;18.20;99.90;;;;;;5072604;28;20045;-78
2023/07/10 02:53:17;;;;;;;14.02;9.77;;;18.20;99.90;;;;;;5092326;28;20051;-79
2023/07/10 02:55:43;;;;;;;12.82;9.80;;;18.20;99.90;;;;;;5091376;28;20032;-80
2023/07/10 02:58:09;;;;;;;12.68;9.77;;;18.20;99.90;;;;;;5079044;28;20072;-79
2023/07/10 03:00:35;;;;;;;15.30;9.23;;;18.20;99.90;;;;;;5078299;28;20522;-79
2023/07/10 03:03:03;;;;;;;14.07;10.00;;;18.30;99.90;;;;;;5092076;28;20484;-78
2023/07/10 03:05:29;;;;;;;17.52;9.57;;;18.30;99.90;;;;;;5074277;28;20032;-77
2023/07/10 03:07:54;;;;;;;13.35;9.75;;;18.20;99.90;;;;;;5082003;28;20131;-78
2023/07/10 03:10:21;;;;;;;15.40;10.38;;;18.20;99.90;;;;;;5074785;28;20084;-78
2023/07/10 03:12:47;;;;;;;12.02;9.00;;;18.20;99.90;;;;;;5078164;28;20052;-79
2023/07/10 03:15:13;;;;;;;14.32;10.20;;;18.20;99.90;;;;;;5096088;28;20028;-79
2023/07/10 03:17:39;;;;;;;13.02;9.60;;;18.20;99.90;;;;;;5096158;28;20040;-80
2023/07/10 03:20:05;;;;;;;14.40;9.85;;;18.20;99.90;;;;;;5094867;28;20424;-78
2023/07/10 03:22:31;;;;;;;15.55;10.45;;;18.20;99.90;;;;;;5067979;28;20047;-78
2023/07/10 03:24:57;;;;;;;16.13;11.23;;;18.20;99.90;;;;;;5094828;28;20042;-77
2023/07/10 03:27:24;;;;;;;17.92;10.88;;;18.20;99.90;;;;;;5077730;28;20123;-78
2023/07/10 03:29:50;;;;;;;16.27;10.85;;;18.20;99.90;;;;;;5092072;28;20127;-78
2023/07/10 03:32:16;;;;;;;13.75;10.00;;;18.20;99.90;;;;;;5090009;28;20131;-79
2023/07/10 03:34:42;;;;;;;15.70;10.13;;;18.20;99.90;;;;;;5091685;28;20032;-81
2023/07/10 03:37:08;;;;;;;18.08;11.38;;;18.20;99.90;;;;;;5074431;28;20094;-79
2023/07/10 03:39:36;;;;;;;15.50;10.18;;;18.20;99.90;;;;;;5073869;28;20086;-78
2023/07/10 03:42:02;;;;;;;16.30;11.50;;;18.20;99.90;;;;;;5057890;28;20071;-80
2023/07/10 03:44:28;;;;;;;14.18;10.63;;;18.20;99.90;;;;;;5073950;28;20051;-80
2023/07/10 03:46:54;;;;;;;17.73;10.65;;;18.20;99.90;;;;;;5041846;28;20045;-78
2023/07/10 03:49:20;;;;;;;17.98;11.30;;;18.20;99.90;;;;;;5077371;28;20036;-80
2023/07/10 03:51:46;;;;;;;15.98;11.30;;;18.20;99.90;;;;;;5084665;28;20127;-79
2023/07/10 03:54:11;;;;;;;15.43;11.02;;;18.20;99.90;;;;;;5040570;28;20376;-78
2023/07/10 03:56:37;;;;;;;18.42;12.02;;;18.20;99.90;;;;;;5075430;28;20444;-78
2023/07/10 03:59:06;;;;;;;16.98;11.63;;;18.20;99.90;;;;;;5094274;28;20046;-79
2023/07/10 04:01:32;;;;;;;14.52;11.38;;;18.20;99.90;;;;;;5082600;28;20040;-79
2023/07/10 04:03:57;;;;;;;16.27;11.90;;;18.10;99.90;;;;;;5072199;28;20369;-79
2023/07/10 04:06:23;;;;;;;16.83;12.25;;;18.20;99.90;;;;;;5072110;28;20040;-79
2023/07/10 04:08:49;;;;;;;16.92;11.60;;;18.10;99.90;;;;;;5074488;28;20032;-78
2023/07/10 04:11:19;;;;;;;17.85;11.43;;;18.10;99.90;;;;;;5082126;28;20040;-78
2023/07/10 04:13:45;;;;;;;15.07;11.00;;;18.10;99.90;;;;;;5095009;28;20112;-79
2023/07/10 04:16:19;;;;;;;16.35;11.85;;;18.10;99.90;;;;;;5093906;28;20040;-78
2023/07/10 04:18:47;;;;;;;17.35;11.48;;;18.10;99.90;;;;;;5093158;28;20127;-79
2023/07/10 04:21:24;;;;;;;14.68;10.93;;;18.10;99.90;;;;;;5095024;28;20042;-79
2023/07/10 04:23:50;;;;;;;15.70;11.88;;;18.00;99.90;;;;;;5073800;28;20054;-79
2023/07/10 04:26:22;;;;;;;16.45;11.63;;;18.10;99.90;;;;;;5088930;28;20036;-79
2023/07/10 04:28:50;;;;;;;14.63;10.98;;;18.10;99.90;;;;;;5074885;28;20036;-79
2023/07/10 04:31:17;;;;;;;16.13;12.02;;;18.10;99.90;;;;;;5074393;28;20045;-79
2023/07/10 04:33:43;;;;;;;16.58;11.15;;;18.10;99.90;;;;;;5073592;28;20036;-79
2023/07/10 04:36:09;;;;;;;15.90;11.60;;;18.10;99.90;;;;;;5056308;28;20079;-80
2023/07/10 04:38:35;;;;;;;17.40;12.05;;;18.10;99.90;;;;;;5072586;28;20389;-80
2023/07/10 04:41:03;;;;;;;17.50;12.30;;;18.10;99.90;;;;;;5078429;28;20039;-80
2023/07/10 04:43:31;;;;;;;17.20;12.10;;;18.10;99.90;;;;;;5093500;28;20035;-79
2023/07/10 04:45:59;;;;;;;18.02;12.43;;;18.10;99.90;;;;;;5093338;28;20054;-80
2023/07/10 04:48:25;;;;;;;17.95;12.48;;;18.10;99.90;;;;;;5094355;28;20090;-79
2023/07/10 04:50:52;;;;;;;16.05;11.80;;;18.10;99.90;;;;;;5077008;28;20491;-79
2023/07/10 04:53:18;;;;;;;15.98;11.38;;;18.10;99.90;;;;;;5076816;28;20116;-80
2023/07/10 04:55:46;;;;;;;16.25;11.15;;;18.00;99.90;;;;;;5072540;28;20487;-79
2023/07/10 04:58:12;;;;;;;17.33;10.80;;;18.10;99.90;;;;;;5079506;28;20047;-79
2023/07/10 05:00:38;;;;;;;16.70;11.57;;;18.10;99.90;;;;;;5093908;28;20051;-78
2023/07/10 05:03:05;;;;;;;15.88;11.65;;;18.10;99.90;;;;;;5078741;28;20036;-79
2023/07/10 05:05:31;;;;;;;16.10;11.02;;;18.10;99.90;;;;;;5092761;28;20396;-78
2023/07/10 05:07:57;;;;;;;15.32;10.52;;;18.10;99.90;;;;;;5087539;28;20045;-79
2023/07/10 05:10:23;;;;;;;14.98;10.73;;;18.10;99.90;;;;;;5091153;28;20071;-80
2023/07/10 05:12:49;;;;;;;14.63;10.43;;;18.10;99.90;;;;;;5075885;28;20068;-80
2023/07/10 05:15:15;;;;;;;13.90;10.70;;;18.00;99.90;;;;;;5092829;28;20032;-80
2023/07/10 05:17:41;;;;;;;16.02;10.75;;;18.10;99.90;;;;;;5093831;28;20468;-79
2023/07/10 05:20:09;;;;;;;14.35;10.55;;;18.10;99.90;;;;;;5092777;28;20050;-79
2023/07/10 05:22:36;;;;;;;14.07;10.45;;;18.10;99.90;;;;;;5092631;28;20032;-79
2023/07/10 05:25:01;;;;;;;14.73;10.95;;;18.10;99.90;;;;;;5075525;28;20048;-79
2023/07/10 05:27:27;;;;;;;19.77;11.18;;;18.10;99.90;;;;;;5093677;28;20051;-79
2023/07/10 05:29:53;;;;;;;13.55;10.27;;;18.10;99.90;;;;;;5075257;28;20040;-78
2023/07/10 05:32:19;;;;;;;14.68;10.90;;;18.00;99.90;;;;;;5090680;28;20494;-79
2023/07/10 05:34:44;;;;;;;14.27;10.55;;;18.10;99.90;;;;;;5055176;28;20074;-79
2023/07/10 05:37:10;;;;;;;16.30;10.98;;;18.10;99.90;;;;;;5080700;28;20378;-78
2023/07/10 05:39:36;;;;;;;14.10;10.77;;;18.10;99.90;;;;;;5087544;28;20044;-78
2023/07/10 05:42:02;;;;;;;15.30;10.75;;;18.00;99.90;;;;;;5072283;28;20196;-80
2023/07/10 05:44:27;;;;;;;15.07;11.00;;;18.10;99.90;;;;;;5083210;28;20032;-78
2023/07/10 05:46:55;;;;;;;14.02;10.30;;;18.10;99.90;;;;;;5093138;28;20055;-78
2023/07/10 05:49:23;;;;;;;13.25;10.32;;;18.10;99.90;;;;;;5093231;28;20032;-79
2023/07/10 05:51:49;;;;;;;14.43;10.18;;;18.10;99.90;;;;;;5042183;28;20040;-78
2023/07/10 05:54:14;;;;;;;13.30;9.05;;;18.10;99.90;;;;;;5075522;28;20089;-77
2023/07/10 05:56:40;;;;;;;13.85;8.65;;;18.10;99.90;;;;;;5076976;28;20038;-79
2023/07/10 05:59:11;;;;;;;15.93;8.43;;;18.10;99.90;;;;;;5071952;28;20076;-80
2023/07/10 06:01:36;;;;;;;12.48;7.70;;;18.10;99.90;;;;;;5085314;28;20045;-79
2023/07/10 06:04:02;;;;;;;9.80;6.85;;;18.10;99.90;;;;;;5071369;28;20052;-79
2023/07/10 06:06:28;;;;;;;11.43;7.20;;;18.10;99.90;;;;;;5059366;28;20046;-77
2023/07/10 06:08:53;;;;;;;7.60;5.60;;;18.10;99.90;;;;;;5073514;28;20443;-77
2023/07/10 06:11:19;;;;;;;8.65;5.07;;;18.10;99.90;;;;;;5038729;28;20048;-78
2023/07/10 06:13:45;;;;;;;7.22;4.80;;;18.00;99.90;;;;;;5073918;28;20048;-79
2023/07/10 06:16:11;;;;;;;6.47;4.70;;;18.00;99.90;;;;;;5091499;28;20048;-79
2023/07/10 06:18:38;;;;;;;6.82;4.45;;;18.00;99.90;;;;;;5058658;28;20076;-68
2023/07/10 06:21:04;;;;;;;7.13;4.20;;;18.00;99.90;;;;;;5092898;28;20456;-67
2023/07/10 06:23:30;;;;;;;4.68;3.70;;;18.00;99.90;;;;;;5092640;28;20040;-67
2023/07/10 06:25:58;;;;;;;7.63;3.90;;;18.00;99.90;;;;;;5092838;28;20059;-67
2023/07/10 06:28:24;;;;;;;4.70;2.72;;;18.00;99.90;;;;;;5092604;28;20078;-67
2023/07/10 06:31:05;;;;;;;4.65;2.97;;;17.90;99.90;;;;;;5072050;28;20090;-68
2023/07/10 06:33:31;;;;;;;4.68;2.80;;;17.90;99.90;;;;;;5075156;28;20044;-68
2023/07/10 06:35:58;;;;;;;3.67;2.40;;;17.90;99.90;;;;;;5072272;28;20045;-67
2023/07/10 06:38:24;;;;;;;5.47;2.90;;;17.90;99.90;;;;;;5070032;28;20473;-67
2023/07/10 06:40:51;;;;;;;5.30;2.60;;;17.90;99.90;;;;;;5080349;28;20044;-69
2023/07/10 06:43:17;;;;;;;6.38;2.83;;;18.00;99.90;;;;;;5080167;28;20040;-67
2023/07/10 06:45:44;;;;;;;4.85;2.75;;;18.00;99.90;;;;;;5093865;28;20032;-67
2023/07/10 06:48:10;;;;;;;4.13;2.58;;;18.00;99.90;;;;;;5096464;28;20486;-67
2023/07/10 06:50:36;;;;;;;6.82;2.40;;;18.00;99.90;;;;;;5089870;28;20114;-67
2023/07/10 06:53:02;;;;;;;5.28;2.35;;;17.90;99.90;;;;;;5095347;28;20044;-67
2023/07/10 06:55:28;;;;;;;3.60;2.28;;;18.00;99.90;;;;;;5096324;28;20036;-67
2023/07/10 06:57:54;;;;;;;4.78;2.50;;;18.00;99.90;;;;;;5096130;28;20164;-67
2023/07/10 07:00:20;;;;;;;7.05;2.45;;;18.00;99.90;;;;;;5096517;28;20040;-67
2023/07/10 07:02:46;;;;;;;5.57;2.88;;;18.10;99.90;;;;;;5096222;28;20130;-67
2023/07/10 07:05:12;;;;;;;4.32;2.65;;;18.20;99.90;;;;;;5087579;28;20108;-67
2023/07/10 07:07:38;;;;;;;6.32;2.50;;;18.30;99.90;;;;;;5082327;28;20077;-67
2023/07/10 07:10:07;;;;;;;5.15;2.92;;;18.30;99.90;;;;;;5079126;28;20464;-67
2023/07/10 07:12:32;;;;;;;5.50;2.45;;;18.30;99.90;;;;;;5095824;28;20111;-67
2023/07/10 07:14:58;;;;;;;4.10;2.80;;;18.30;99.90;;;;;;5096037;28;20598;-67
2023/07/10 07:17:24;;;;;;;4.82;2.80;;;18.40;99.90;;;;;;5071817;28;20049;-67
2023/07/10 07:19:51;;;;;;;4.93;2.30;;;18.60;99.90;;;;;;5078238;28;20036;-67
2023/07/10 07:22:16;;;;;;;4.30;2.22;;;18.70;99.90;;;;;;5085812;28;20036;-68
2023/07/10 07:24:42;;;;;;;4.18;2.60;;;18.80;99.90;;;;;;5073906;28;20040;-68
2023/07/10 07:27:09;;;;;;;4.03;2.50;;;18.70;99.90;;;;;;5075550;28;20037;-66
2023/07/10 07:29:34;;;;;;;5.28;2.15;;;18.70;99.90;;;;;;5092618;28;20093;-66
2023/07/10 07:32:00;;;;;;;3.90;1.98;;;18.60;99.90;;;;;;5083403;28;20048;-67
2023/07/10 07:34:26;;;;;;;4.97;2.15;;;18.60;99.90;;;;;;5061249;28;20045;-67
2023/07/10 07:36:52;;;;;;;3.40;1.90;;;18.80;99.90;;;;;;5073730;28;20058;-67
2023/07/10 07:39:27;;;;;;;4.65;2.40;;;18.90;99.90;;;;;;5074857;28;20049;-67
2023/07/10 07:41:53;;;;;;;5.32;2.50;;;18.90;99.90;;;;;;5074850;28;20508;-67
2023/07/10 07:44:19;;;;;;;3.58;2.03;;;19.00;99.90;;;;;;5067724;28;20041;-67
2023/07/10 07:46:45;;;;;;;5.55;2.15;;;19.10;99.90;;;;;;5074773;28;20044;-67
2023/07/10 07:49:10;;;;;;;4.78;1.85;;;19.20;99.90;;;;;;5074872;28;20162;-66
2023/07/10 07:51:37;;;;;;;4.78;2.03;;;19.30;99.90;;;;;;5074756;28;20044;-68
2023/07/10 07:54:05;;;;;;;3.45;1.90;;;19.40;99.90;;;;;;5055439;28;20469;-66
2023/07/10 07:56:31;;;;;;;3.00;1.80;;;19.50;99.90;;;;;;5074525;28;20485;-66
2023/07/10 07:58:57;;;;;;;3.58;1.70;;;19.50;99.90;;;;;;5074489;28;20036;-67
2023/07/10 08:01:22;;;;;;;3.28;1.55;;;19.50;99.90;;;;;;5074565;28;20494;-66
2023/07/10 08:03:48;;;;;;;3.75;1.70;;;19.50;99.90;;;;;;5074189;28;20384;-66
2023/07/10 08:06:13;;;;;;;3.92;1.45;;;19.60;99.90;;;;;;5074444;28;20043;-66
2023/07/10 08:08:39;;;;;;;4.45;1.73;;;19.60;99.90;;;;;;5072596;28;20416;-65
2023/07/10 08:11:06;;;;;;;4.10;1.48;;;19.70;99.90;;;;;;5068390;28;20471;-66
2023/07/10 08:13:32;;;;;;;3.78;1.60;;;19.80;99.90;;;;;;5074412;28;20037;-66
2023/07/10 08:15:58;;;;;;;2.95;1.30;;;19.80;99.90;;;;;;5073980;28;20040;-67
2023/07/10 08:18:24;;;;;;;3.53;1.42;;;19.90;99.90;;;;;;5073234;28;20071;-67
2023/07/10 08:20:49;;;;;;;3.55;1.10;;;20.00;99.90;;;;;;5066839;28;20041;-67
2023/07/10 08:23:15;;;;;;;3.47;1.77;;;20.10;99.90;;;;;;5061283;28;20428;-67
2023/07/10 08:25:41;;;;;;;3.90;1.90;;;20.20;99.90;;;;;;5074336;28;20037;-68
2023/07/10 08:28:07;;;;;;;3.67;1.70;;;20.20;99.90;;;;;;5074308;28;20082;-66
2023/07/10 08:30:32;;;;;;;5.75;1.55;;;20.30;99.90;;;;;;5073892;28;20046;-67
2023/07/10 08:32:58;;;;;;;4.65;1.80;;;20.40;99.90;;;;;;5067715;28;20091;-67
2023/07/10 08:35:24;;;;;;;3.70;1.65;;;20.50;99.90;;;;;;5074209;28;20498;-66
2023/07/10 08:37:50;;;;;;;4.60;1.52;;;20.60;99.90;;;;;;5063827;28;20075;-66
2023/07/10 08:40:29;;;;;;;4.22;2.25;;;20.70;99.90;;;;;;5074193;28;20044;-67
2023/07/10 08:42:55;;;;;;;4.55;1.58;;;20.80;99.90;;;;;;5073962;28;20621;-67
2023/07/10 08:45:42;;;;;;;3.40;1.48;;;20.90;99.90;;;;;;5073114;28;20040;-66
2023/07/10 08:48:18;;;;;;;;;;;21.10;99.90;;;;;;5074352;28;20052;-67
2023/07/10 08:50:47;;;;;;;4.15;1.77;;;21.30;99.90;;;;;;5073874;28;19964;-66
2023/07/10 08:53:16;;;;;;;4.57;1.45;;;21.40;99.90;;;;;;5073168;28;20047;-66
2023/07/10 08:55:41;;;;;;;3.47;1.50;;;21.50;99.90;;;;;;5073509;28;20052;-67
2023/07/10 08:58:19;;;;;;;3.88;1.55;;;21.50;99.90;;;;;;5073759;28;20044;-66
2023/07/10 09:00:47;;;;;;;2.90;1.60;;;21.50;99.90;;;;;;5073035;28;20044;-67
2023/07/10 09:03:36;;;;;;;3.90;1.40;;;21.50;99.90;;;;;;5073622;28;20040;-67
2023/07/10 09:06:03;;;;;;;4.75;1.27;;;21.60;99.90;;;;;;5072147;28;20049;-67
2023/07/10 09:08:32;;;;;;;3.00;1.35;;;21.70;99.90;;;;;;5073194;28;20111;-67
2023/07/10 09:11:02;;;;;;;4.38;1.70;;;21.60;99.90;;;;;;5072295;28;20044;-67
2023/07/10 09:13:47;;;;;;;5.07;1.90;;;21.50;99.90;;;;;;5058857;28;20488;-67
2023/07/10 09:16:16;;;;;;;2.38;1.40;;;21.70;99.90;;;;;;5070161;28;20040;-67
2023/07/10 09:18:51;;;;;;;2.85;1.50;;;21.80;99.90;;;;;;5070953;28;20047;-67
2023/07/10 09:21:24;;;;;;;4.40;1.80;;;22.00;99.90;;;;;;5094593;28;20045;-67
2023/07/10 09:23:51;;;;;;;2.78;1.48;;;22.10;99.90;;;;;;5070820;28;20044;-68
2023/07/10 09:26:25;;;;;;;3.42;1.92;;;22.20;99.90;;;;;;5073076;28;20048;-68
2023/07/10 09:28:59;;;;;;;4.93;1.85;;;22.20;99.90;;;;;;5072737;28;20096;-68
2023/07/10 09:32:00;;;;;;;3.33;1.60;;;22.20;99.90;;;;;;5070009;28;20110;-68
2023/07/10 09:34:31;;;;;;;4.10;1.58;;;22.30;99.90;;;;;;5058530;28;20465;-67
2023/07/10 09:36:58;;;;;;;2.70;1.45;;;22.40;99.90;;;;;;5061582;28;20090;-67
2023/07/10 09:39:26;;;;;;;3.65;1.80;;;22.20;99.90;;;;;;5071727;28;20107;-67
2023/07/10 09:41:52;;;;;;;4.32;1.83;;;22.20;99.90;;;;;;5072833;28;20036;-67
2023/07/10 09:44:20;;;;;;;3.38;1.27;;;22.30;99.90;;;;;;5072761;28;20043;-67
2023/07/10 09:46:47;;;;;;;3.03;1.40;;;22.40;99.90;;;;;;5073017;28;20036;-67
2023/07/10 09:49:19;;;;;;;3.03;1.60;;;22.60;99.90;;;;;;5071624;28;20373;-68
2023/07/10 09:51:59;;;;;;;3.97;1.25;;;22.60;99.90;;;;;;5070845;28;20158;-69
2023/07/10 09:54:37;;;;;;;5.38;1.50;;;22.70;99.90;;;;;;5072641;28;20045;-67
2023/07/10 09:57:09;;;;;;;4.75;1.63;;;22.90;99.90;;;;;;5056851;28;20461;-67
2023/07/10 09:59:35;;;;;;;3.85;1.52;;;23.00;99.90;;;;;;5071596;28;20169;-67
2023/07/10 10:02:19;;;;;;;5.20;1.50;;;23.10;99.90;;;;;;5072373;28;20131;-67
2023/07/10 10:04:59;;;;;;;4.57;1.58;;;23.30;99.90;;;;;;5072896;28;20423;-68
2023/07/10 10:07:25;;;;;;;2.70;1.60;;;23.20;99.90;;;;;;5072409;28;20040;-67
2023/07/10 10:10:24;;;;;;;4.22;1.60;;;23.10;99.90;;;;;;5071973;28;20430;-67
2023/07/10 10:13:26;;;;;;;4.55;1.65;;;23.10;99.90;;;;;;5070491;28;20045;-66
2023/07/10 10:15:56;;;;;;;4.28;1.85;;;23.20;99.90;;;;;;5062580;28;20036;-66
2023/07/10 10:18:55;;;;;;;5.20;1.70;;;23.30;99.90;;;;;;5075878;28;20358;-66
2023/07/10 10:21:22;;;;;;;3.05;1.58;;;23.50;99.90;;;;;;5068034;28;20392;-67
2023/07/10 10:23:57;;;;;;;2.88;1.70;;;23.50;99.90;;;;;;5068334;28;20063;-66
2023/07/10 10:26:40;;;;;;;3.25;1.60;;;23.50;99.90;;;;;;5090173;28;20055;-66
2023/07/10 10:29:24;;;;;;;4.25;1.67;;;23.60;99.90;;;;;;5075047;28;20385;-67
2023/07/10 10:31:59;;;;;;;4.35;1.88;;;23.70;99.90;;;;;;5074469;28;20049;-67
2023/07/10 10:34:38;;;;;;;3.45;1.50;;;23.90;99.90;;;;;;5071764;28;20064;-67
2023/07/10 10:37:37;;;;;;;2.97;1.60;;;23.70;99.90;;;;;;5075264;28;20415;-67
2023/07/10 10:40:41;;;;;;;5.95;1.88;;;23.60;99.90;;;;;;5076002;28;20127;-68
2023/07/10 10:43:36;;;;;;;4.20;1.63;;;23.70;99.90;;;;;;5057826;28;20048;-67
2023/07/10 10:46:14;;;;;;;5.47;1.58;;;23.70;99.90;;;;;;5055963;28;20102;-67
2023/07/10 10:48:46;;;;;;;2.80;1.60;;;23.40;99.90;;;;;;5073313;28;20074;-67
2023/07/10 10:51:56;;;;;;;10.32;1.95;;;23.40;99.90;;;;;;5075707;28;20036;-66
2023/07/10 10:54:27;;;;;;;4.38;1.50;;;23.70;99.90;;;;;;5052048;28;20078;-67
2023/07/10 10:57:15;;;;;;;4.32;1.35;;;23.70;99.90;;;;;;5072672;28;20105;-67
2023/07/10 11:00:10;;;;;;;3.40;1.80;;;23.70;99.90;;;;;;5070941;28;20044;-68
2023/07/10 11:02:50;;;;;;;2.47;1.20;;;23.50;99.90;;;;;;5053075;28;20140;-67
2023/07/10 11:05:39;;;;;;;5.20;1.80;;;23.60;99.90;;;;;;5075411;28;20028;-67
2023/07/10 11:08:24;;;;;;;4.10;1.60;;;24.00;99.90;;;;;;5074893;28;20044;-67
2023/07/10 11:10:52;;;;;;;4.90;1.60;;;24.10;99.90;;;;;;5073101;28;20040;-66
2023/07/10 11:13:36;;;;;;;2.90;1.40;;;23.80;99.90;;;;;;5071703;28;20454;-66
2023/07/10 11:16:03;;;;;;;4.80;1.67;;;23.70;99.90;;;;;;5074990;28;20392;-67
2023/07/10 11:18:30;;;;;;;3.28;1.38;;;23.90;99.90;;;;;;5075222;28;20036;-68
2023/07/10 11:20:57;;;;;;;3.60;1.38;;;23.70;99.90;;;;;;5075172;28;20094;-67
2023/07/10 11:23:49;;;;;;;3.65;1.45;;;23.60;99.90;;;;;;5074947;28;20028;-67
2023/07/10 11:26:26;;;;;;;4.65;1.42;;;23.60;99.90;;;;;;5057691;28;20051;-67
2023/07/10 11:28:59;;;;;;;3.05;1.33;;;23.40;99.90;;;;;;5074651;28;20059;-67
2023/07/10 11:31:31;;;;;;;3.17;1.23;;;23.40;99.90;;;;;;5073962;28;20435;-66
2023/07/10 11:34:05;;;;;;;4.22;1.20;;;23.70;99.90;;;;;;5074012;28;20044;-67
2023/07/10 11:36:36;;;;;;;3.17;1.03;;;23.80;99.90;;;;;;5073602;28;20412;-66
2023/07/10 11:39:11;;;;;;;2.72;1.20;;;24.00;99.90;;;;;;5073263;28;20751;-66
2023/07/10 11:41:58;;;;;;;3.10;1.30;;;24.10;99.90;;;;;;5075071;28;20044;-70
2023/07/10 11:44:31;;;;;;;2.83;1.17;;;24.10;99.90;;;;;;5060139;28;20040;-67
2023/07/10 11:47:05;;;;;;;5.50;1.60;;;24.30;99.90;;;;;;5058221;28;20052;-69
2023/07/10 11:49:40;;;;;;;4.35;1.27;;;24.40;99.90;;;;;;5074110;28;20052;-68
2023/07/10 11:52:15;;;;;;;3.77;1.50;;;24.60;99.90;;;;;;5074554;28;20056;-68
2023/07/10 11:54:47;;;;;;;3.45;1.08;;;24.70;99.90;;;;;;5074300;28;20052;-69
2023/07/10 11:57:19;;;;;;;3.65;1.20;;;24.70;99.90;;;;;;5074050;28;20377;-68
2023/07/10 11:59:49;;;;;;;3.90;1.25;;;24.30;99.90;;;;;;5074957;28;20086;-68
2023/07/10 12:02:44;;;;;;;2.65;1.20;;;24.40;99.90;;;;;;5073134;28;20044;-68
2023/07/10 12:05:20;;;;;;;3.33;1.00;;;24.50;99.90;;;;;;5072769;28;20071;-67
2023/07/10 12:07:50;;;;;;;2.55;1.00;;;24.60;99.90;;;;;;5074067;28;20131;-67
2023/07/10 12:10:15;;;;;;;2.45;1.00;;;24.80;99.90;;;;;;5074410;28;20036;-66
2023/07/10 12:12:41;;;;;;;4.65;1.30;;;25.00;99.90;;;;;;5073330;28;20538;-66
2023/07/10 12:15:09;;;;;;;3.83;1.33;;;25.10;99.90;;;;;;5073710;28;20046;-66
2023/07/10 12:17:36;;;;;;;2.70;1.10;;;25.20;99.90;;;;;;5074240;28;20040;-67
2023/07/10 12:20:04;;;;;;;4.88;1.40;;;25.30;99.90;;;;;;5073657;28;20071;-67
2023/07/10 12:22:37;;;;;;;3.50;1.17;;;25.20;99.90;;;;;;5073991;28;20131;-66
2023/07/10 12:25:12;;;;;;;4.50;1.20;;;25.40;99.90;;;;;;5074340;28;20044;-67
2023/07/10 12:27:38;;;;;;;2.38;0.90;;;25.50;99.90;;;;;;5073231;28;20037;-68
2023/07/10 12:30:14;;;;;;;3.92;1.38;;;25.60;99.90;;;;;;5072937;28;20461;-69
2023/07/10 12:32:40;;;;;;;4.10;1.20;;;25.50;99.90;;;;;;5069467;28;20422;-68
2023/07/10 12:35:32;;;;;;;3.42;1.10;;;25.10;99.90;;;;;;5073527;28;20037;-67
2023/07/10 12:38:00;;;;;;;2.80;0.90;;;24.70;99.90;;;;;;5068472;28;20048;-66
2023/07/10 12:40:28;;;;;;;3.10;1.23;;;24.50;99.90;;;;;;5053306;28;20048;-67
2023/07/10 12:42:54;;;;;;;2.85;1.00;;;24.20;99.90;;;;;;5073102;28;20037;-66
2023/07/10 12:45:32;;;;;;;2.40;0.88;;;24.00;99.90;;;;;;5073481;28;20484;-67
2023/07/10 12:48:13;;;;;;;2.75;1.00;;;23.90;99.90;;;;;;5069156;28;20119;-67
2023/07/10 12:50:50;;;;;;;2.67;0.90;;;23.90;99.90;;;;;;5068835;28;20044;-67
2023/07/10 12:53:21;;;;;;;3.58;0.88;;;24.30;99.90;;;;;;5073210;28;20045;-67
2023/07/10 12:55:52;;;;;;;7.88;1.17;;;24.60;99.90;;;;;;5072844;28;20032;-68